Time;durP1;ratioP1;P1;durP2;ratioP2;P2;SDS_P1;SDS_P2;PMS_P1;PMS_P2;Temp;Humidity;BMP_temperature;BMP_pressure;BME280_temperature;BME280_humidity;BME280_pressure;Samples;Min_cycle;Max_cycle;Signal;HPM_P1;HPM_P2
2021/12/29 00:02:39;;;;;;;41.42;22.98;;;;;;;-4.85;100.00;97615.82;2200071;81;20954;-91
2021/12/29 00:05:40;;;;;;;40.38;21.65;;;;;;;-4.84;100.00;97627.69;2188009;81;21001;-91
2021/12/29 00:08:41;;;;;;;38.48;22.15;;;;;;;-4.82;100.00;97636.05;2188100;81;20982;-91
2021/12/29 00:11:42;;;;;;;38.30;22.50;;;;;;;-4.77;100.00;97641.62;2188296;81;21456;-91
2021/12/29 00:14:43;;;;;;;41.77;23.47;;;;;;;-4.72;100.00;97635.74;2188046;81;21032;-91
2021/12/29 00:17:45;;;;;;;50.70;26.70;;;;;;;-4.69;100.00;97637.25;2187670;81;21065;-90
2021/12/29 00:20:46;;;;;;;41.05;24.27;;;;;;;-4.63;100.00;97639.38;2188041;81;21013;-91
2021/12/29 00:23:47;;;;;;;45.55;22.85;;;;;;;-4.57;100.00;97637.66;2188201;81;21053;-91
2021/12/29 00:26:47;;;;;;;39.70;19.52;;;;;;;-4.51;100.00;97639.75;2188053;81;21018;-90
2021/12/29 00:29:48;;;;;;;45.38;24.07;;;;;;;-4.47;100.00;97649.30;2188940;81;21032;-91
2021/12/29 00:32:49;;;;;;;44.25;21.35;;;;;;;-4.43;100.00;97647.67;2188000;81;20982;-91
2021/12/29 00:35:50;;;;;;;36.50;21.60;;;;;;;-4.37;100.00;97643.41;2187892;81;20989;-91
2021/12/29 00:38:51;;;;;;;38.98;21.40;;;;;;;-4.33;100.00;97644.80;2187999;81;20962;-91
2021/12/29 00:41:52;;;;;;;43.08;23.85;;;;;;;-4.28;100.00;97652.14;2188347;81;20966;-92
2021/12/29 00:44:54;;;;;;;44.60;22.98;;;;;;;-4.22;100.00;97645.74;2188458;81;21464;-91
2021/12/29 00:47:54;;;;;;;36.58;23.15;;;;;;;-4.18;100.00;97652.28;2188228;81;21042;-91
2021/12/29 00:50:55;;;;;;;34.95;21.15;;;;;;;-4.12;100.00;97653.08;2188307;81;21506;-90
2021/12/29 00:53:56;;;;;;;35.17;21.48;;;;;;;-4.07;100.00;97656.13;2188172;81;21037;-92
2021/12/29 00:56:57;;;;;;;36.98;20.72;;;;;;;-4.04;100.00;97662.28;2198052;81;21016;-91
2021/12/29 00:59:57;;;;;;;44.83;24.05;;;;;;;-4.01;100.00;97648.01;2178118;81;21156;-91
2021/12/29 01:02:58;;;;;;;46.80;24.80;;;;;;;-4.00;100.00;97645.80;2204717;81;21003;-92
2021/12/29 01:05:59;;;;;;;45.58;24.95;;;;;;;-4.06;100.00;97643.22;2204531;81;20952;-92
2021/12/29 01:09:00;;;;;;;49.25;24.35;;;;;;;-4.12;100.00;97639.02;2205031;81;20957;-92
2021/12/29 01:12:01;;;;;;;44.38;25.75;;;;;;;-4.17;100.00;97635.54;2204632;81;21076;-93
2021/12/29 01:15:02;;;;;;;44.60;25.77;;;;;;;-4.18;100.00;97637.75;2199076;81;20926;-91
2021/12/29 01:18:03;;;;;;;39.60;22.87;;;;;;;-4.15;100.00;97637.52;2190966;81;21092;-91
2021/12/29 01:21:04;;;;;;;35.52;20.05;;;;;;;-4.14;100.00;97630.19;2204980;81;21294;-91
2021/12/29 01:24:05;;;;;;;40.75;21.73;;;;;;;-4.18;100.00;97630.08;2204345;81;21057;-93
2021/12/29 01:27:06;;;;;;;39.45;22.77;;;;;;;-4.21;100.00;97627.73;2204509;81;21081;-92
2021/12/29 01:30:10;;;;;;;49.08;24.85;;;;;;;-4.27;100.00;97626.11;2204900;81;21514;-92
2021/12/29 01:33:10;;;;;;;50.35;25.15;;;;;;;-4.30;100.00;97613.08;2204670;81;21492;-91
2021/12/29 01:36:11;;;;;;;40.83;23.12;;;;;;;-4.35;100.00;97608.78;2204771;81;21016;-91
2021/12/29 01:39:11;;;;;;;46.20;24.40;;;;;;;-4.42;100.00;97622.94;2204870;81;20997;-92
2021/12/29 01:42:12;;;;;;;46.48;24.70;;;;;;;-4.45;100.00;97604.00;2204684;81;21079;-92
2021/12/29 01:45:13;;;;;;;36.48;20.32;;;;;;;-4.43;100.00;97617.02;2204684;81;21065;-92
2021/12/29 01:48:16;;;;;;;47.15;25.08;;;;;;;-4.43;100.00;97606.79;2204572;81;21032;-92
2021/12/29 01:51:18;;;;;;;38.53;21.90;;;;;;;-4.43;100.00;97610.63;2199705;81;21073;-92
2021/12/29 01:54:25;;;;;;;40.83;24.72;;;;;;;-4.43;100.00;97616.20;2181043;82;21052;-92
2021/12/29 01:57:25;;;;;;;43.55;23.45;;;;;;;-4.49;100.00;97604.67;2181070;82;21000;-92
2021/12/29 02:00:26;;;;;;;33.38;19.37;;;;;;;-4.53;100.00;97613.50;2181158;81;21056;-92
2021/12/29 02:03:27;;;;;;;43.92;23.18;;;;;;;-4.61;100.00;97605.58;2181281;81;21004;-92
2021/12/29 02:06:28;;;;;;;38.90;21.85;;;;;;;-4.64;100.00;97604.53;2187288;81;20938;-90
2021/12/29 02:09:29;;;;;;;33.98;19.77;;;;;;;-4.69;100.00;97608.69;2198369;81;21000;-91
2021/12/29 02:12:29;;;;;;;32.17;19.07;;;;;;;-4.74;100.00;97618.91;2209200;81;20985;-90
2021/12/29 02:15:30;;;;;;;40.45;22.35;;;;;;;-4.74;100.00;97612.52;2209308;81;21000;-89
2021/12/29 02:18:32;;;;;;;37.35;20.77;;;;;;;-4.78;100.00;97609.81;2195129;81;21105;-89
2021/12/29 02:21:33;;;;;;;34.20;21.42;;;;;;;-4.87;100.00;97593.42;2190489;81;21061;-90
2021/12/29 02:24:42;;;;;;;33.42;20.90;;;;;;;-4.92;100.00;97595.50;2163399;78;21189;-87
2021/12/29 02:27:42;;;;;;;38.23;19.73;;;;;;;-4.95;100.00;97599.53;2157481;81;21469;-84
2021/12/29 02:30:43;;;;;;;30.10;16.32;;;;;;;-5.03;100.00;97592.45;2151362;83;20972;-85
2021/12/29 02:33:44;;;;;;;40.23;20.43;;;;;;;-5.04;100.00;97595.09;2151142;83;21024;-85
2021/12/29 02:36:45;;;;;;;37.90;21.23;;;;;;;-5.04;100.00;97598.45;2150891;82;20999;-85
2021/12/29 02:39:47;;;;;;;46.63;22.42;;;;;;;-5.08;100.00;97593.69;2150436;83;21537;-87
2021/12/29 02:42:47;;;;;;;42.33;22.35;;;;;;;-5.13;100.00;97588.08;2150686;83;20984;-86
2021/12/29 02:45:49;;;;;;;35.68;21.33;;;;;;;-5.17;100.00;97595.16;2150964;83;21551;-86
2021/12/29 02:48:55;;;;;;;40.60;20.52;;;;;;;-5.22;100.00;97596.73;2150903;82;21050;-85
2021/12/29 02:51:52;;;;;;;47.75;23.95;;;;;;;-5.26;100.00;97595.34;2150152;81;21000;-88
2021/12/29 02:54:53;;;;;;;42.75;22.02;;;;;;;-5.28;100.00;97602.30;2150675;82;21118;-86
2021/12/29 02:57:54;;;;;;;46.35;22.30;;;;;;;-5.25;100.00;97605.90;2150939;83;20991;-86
2021/12/29 03:00:55;;;;;;;37.53;20.45;;;;;;;-5.16;100.00;97608.27;2150719;82;21017;-88
2021/12/29 03:03:55;;;;;;;45.23;23.95;;;;;;;-5.10;100.00;97607.03;2151054;83;21007;-86
2021/12/29 03:06:56;;;;;;;43.80;22.90;;;;;;;-5.03;100.00;97612.88;2151106;82;21028;-86
2021/12/29 03:09:57;;;;;;;44.83;23.80;;;;;;;-4.91;100.00;97613.73;2151267;83;21059;-86
2021/12/29 03:12:58;;;;;;;46.40;22.87;;;;;;;-4.81;100.00;97614.69;2151278;82;21514;-86
2021/12/29 03:15:59;;;;;;;48.08;24.52;;;;;;;-4.70;100.00;97624.13;2151343;83;20971;-85
2021/12/29 03:18:59;;;;;;;38.60;22.95;;;;;;;-4.60;100.00;97614.41;2151494;82;21059;-86
2021/12/29 03:22:00;;;;;;;35.55;19.95;;;;;;;-4.49;100.00;97625.11;2151801;83;20975;-84
2021/12/29 03:25:01;;;;;;;49.60;24.10;;;;;;;-4.40;100.00;97610.39;2129665;81;21067;-85
2021/12/29 03:28:02;;;;;;;38.38;21.25;;;;;;;-4.33;100.00;97610.29;2123159;83;21007;-85
2021/12/29 03:31:03;;;;;;;40.60;22.22;;;;;;;-4.29;100.00;97608.34;2123204;83;21012;-85
2021/12/29 03:34:03;;;;;;;39.90;20.70;;;;;;;-4.25;100.00;97608.45;2123126;83;20940;-85
2021/12/29 03:37:04;;;;;;;38.83;23.65;;;;;;;-4.22;100.00;97612.52;2122954;83;21100;-86
2021/12/29 03:40:08;;;;;;;43.20;22.15;;;;;;;-4.22;100.00;97604.84;2122756;84;21103;-84
2021/12/29 03:43:09;;;;;;;46.92;23.47;;;;;;;-4.16;100.00;97606.95;2123099;84;20956;-85
2021/12/29 03:46:09;;;;;;;39.30;21.12;;;;;;;-4.18;100.00;97603.70;2098375;84;21040;-85
2021/12/29 03:49:12;;;;;;;40.52;21.65;;;;;;;-4.18;100.00;97610.09;2098547;84;20976;-85
2021/12/29 03:52:13;;;;;;;42.45;22.67;;;;;;;-4.19;100.00;97613.12;2123245;84;20960;-85
2021/12/29 03:55:14;;;;;;;41.80;23.40;;;;;;;-4.20;100.00;97620.91;2123118;84;21471;-85
2021/12/29 03:58:15;;;;;;;38.90;23.00;;;;;;;-4.16;100.00;97628.69;2122947;84;21007;-89
2021/12/29 04:01:16;;;;;;;46.65;24.25;;;;;;;-4.14;100.00;97626.82;2123089;84;21001;-86
2021/12/29 04:04:16;;;;;;;40.10;22.02;;;;;;;-4.11;100.00;97624.06;2122962;84;20969;-85
2021/12/29 04:07:17;;;;;;;44.55;21.80;;;;;;;-4.10;100.00;97625.69;2122852;83;21000;-86
2021/12/29 04:10:18;;;;;;;42.58;22.35;;;;;;;-4.15;100.00;97631.13;2122806;83;20952;-85
2021/12/29 04:13:19;;;;;;;42.62;22.85;;;;;;;-4.12;100.00;97633.44;2122906;83;21021;-88
2021/12/29 04:16:20;;;;;;;40.03;22.45;;;;;;;-4.11;100.00;97643.23;2121950;83;21036;-89
2021/12/29 04:19:39;;;;;;;39.13;22.27;;;;;;;-4.09;100.00;97637.53;2121331;84;20960;-89
2021/12/29 04:22:32;;;;;;;47.78;24.52;;;;;;;-4.08;100.00;97635.32;2122792;82;21090;-90
2021/12/29 04:25:37;;;;;;;42.88;22.35;;;;;;;-4.11;100.00;97631.27;2122443;82;21019;-85
2021/12/29 04:28:38;;;;;;;40.60;20.57;;;;;;;-4.08;100.00;97633.58;2122961;84;21008;-85
2021/12/29 04:31:39;;;;;;;37.53;21.77;;;;;;;-4.04;100.00;97629.03;2122897;84;20992;-86
2021/12/29 04:34:39;;;;;;;44.33;22.17;;;;;;;-4.03;100.00;97637.05;2122623;84;21411;-86
2021/12/29 04:37:40;;;;;;;46.90;24.12;;;;;;;-4.00;100.00;97639.41;2122612;84;21036;-88
2021/12/29 04:40:42;;;;;;;50.10;24.20;;;;;;;-4.02;100.00;97642.08;2122874;84;21047;-86
2021/12/29 04:43:43;;;;;;;43.55;22.05;;;;;;;-4.00;100.00;97639.41;2122979;84;21035;-87
2021/12/29 04:46:46;;;;;;;40.78;21.48;;;;;;;-4.00;100.00;97638.13;2122907;83;20972;-90
2021/12/29 04:49:48;;;;;;;39.98;21.87;;;;;;;-4.01;100.00;97637.31;2121744;83;21019;-89
2021/12/29 04:52:49;;;;;;;37.93;21.07;;;;;;;-4.00;100.00;97639.41;2121199;83;20979;-90
2021/12/29 04:55:50;;;;;;;40.55;21.82;;;;;;;-3.98;100.00;97643.13;2120925;84;20995;-91
2021/12/29 04:58:50;;;;;;;34.08;19.23;;;;;;;-3.95;100.00;97649.28;2120762;83;21506;-91
2021/12/29 05:01:51;;;;;;;36.95;21.33;;;;;;;-3.98;100.00;97633.70;2121982;83;20992;-84
2021/12/29 05:05:07;;;;;;;39.20;21.12;;;;;;;-3.97;100.00;97643.47;2121917;84;21004;-89
2021/12/29 05:11:17;;;;;;;35.05;20.82;;;;;;;-3.96;100.00;97629.28;2121619;84;21048;-85
2021/12/29 05:14:18;;;;;;;39.13;24.23;;;;;;;-3.95;100.00;97629.63;2122485;83;20972;-86
2021/12/29 05:17:18;;;;;;;39.85;21.52;;;;;;;-3.85;100.00;97642.53;2121630;83;20992;-86
2021/12/29 05:20:19;;;;;;;38.02;18.45;;;;;;;-3.85;100.00;97642.53;2120747;83;20995;-86
2021/12/29 05:23:20;;;;;;;38.80;20.40;;;;;;;-3.84;100.00;97646.72;2120269;82;20962;-87
2021/12/29 05:26:21;;;;;;;47.85;27.05;;;;;;;-3.80;100.00;97652.78;2120135;84;21051;-86
2021/12/29 05:29:21;;;;;;;44.95;23.07;;;;;;;-3.78;100.00;97652.66;2120341;83;21052;-87
2021/12/29 05:32:22;;;;;;;41.15;22.27;;;;;;;-3.76;100.00;97658.47;2120202;83;21439;-88
2021/12/29 05:35:23;;;;;;;36.63;19.82;;;;;;;-3.73;100.00;97662.09;2120165;83;21004;-88
2021/12/29 05:38:24;;;;;;;43.23;24.00;;;;;;;-3.69;100.00;97667.31;2120040;83;20980;-87
2021/12/29 05:41:25;;;;;;;48.60;24.90;;;;;;;-3.73;100.00;97663.38;2120197;84;21015;-89
2021/12/29 05:44:26;;;;;;;46.85;25.80;;;;;;;-3.73;100.00;97663.38;2120313;83;20999;-87
2021/12/29 05:47:26;;;;;;;41.37;23.60;;;;;;;-3.74;100.00;97668.15;2120472;83;20953;-87
2021/12/29 05:50:27;;;;;;;43.60;23.07;;;;;;;-3.76;100.00;97668.23;2120391;83;21067;-89
2021/12/29 05:53:28;;;;;;;39.90;21.07;;;;;;;-3.78;100.00;97662.89;2120400;83;20952;-88
2021/12/29 05:56:29;;;;;;;45.17;25.27;;;;;;;-3.79;100.00;97667.20;2120309;83;21012;-89
2021/12/29 05:59:29;;;;;;;36.90;21.20;;;;;;;-3.78;100.00;97666.73;2120217;83;20991;-88
2021/12/29 06:02:30;;;;;;;45.38;25.35;;;;;;;-3.75;100.00;97662.22;2120339;83;20952;-88
2021/12/29 06:05:31;;;;;;;39.53;21.57;;;;;;;-3.70;100.00;97661.86;2120251;84;21019;-88
2021/12/29 06:08:32;;;;;;;41.40;20.62;;;;;;;-3.67;100.00;97655.22;2120346;83;21005;-89
2021/12/29 06:11:33;;;;;;;47.38;25.88;;;;;;;-3.63;100.00;97656.62;2120441;83;20952;-88
2021/12/29 06:14:34;;;;;;;45.33;23.50;;;;;;;-3.61;100.00;97656.51;2120182;83;21010;-89
2021/12/29 06:17:35;;;;;;;37.28;21.37;;;;;;;-3.57;100.00;97654.05;2120313;83;21012;-87
2021/12/29 06:20:38;;;;;;;39.45;23.50;;;;;;;-3.56;100.00;97662.11;2120511;83;21534;-87
2021/12/29 06:23:38;;;;;;;37.05;21.00;;;;;;;-3.53;100.00;97659.30;2120458;82;21011;-88
2021/12/29 06:26:39;;;;;;;36.00;19.82;;;;;;;-3.52;100.00;97661.73;2120964;84;20995;-86
2021/12/29 06:29:40;;;;;;;36.42;20.05;;;;;;;-3.47;100.00;97662.68;2122626;83;20940;-85
2021/12/29 06:32:40;;;;;;;41.68;22.02;;;;;;;-3.44;100.00;97661.16;2122620;83;20964;-85
2021/12/29 06:35:41;;;;;;;44.60;23.22;;;;;;;-3.42;100.00;97662.31;2120557;83;21015;-87
2021/12/29 06:38:42;;;;;;;37.10;20.88;;;;;;;-3.40;100.00;97674.05;2120383;83;20976;-87
2021/12/29 06:41:44;;;;;;;34.13;19.77;;;;;;;-3.37;100.00;97678.96;2120522;84;21528;-88
2021/12/29 06:44:45;;;;;;;40.88;21.23;;;;;;;-3.35;100.00;97679.65;2120408;83;21016;-87
2021/12/29 06:47:45;;;;;;;46.05;26.52;;;;;;;-3.29;100.00;97694.98;2120159;83;21035;-86
2021/12/29 06:50:46;;;;;;;43.78;23.47;;;;;;;-3.26;100.00;97685.81;2120354;83;20963;-86
2021/12/29 06:53:47;;;;;;;40.03;23.73;;;;;;;-3.24;100.00;97683.94;2120655;83;21023;-85
2021/12/29 06:56:48;;;;;;;40.88;20.52;;;;;;;-3.23;100.00;97679.16;2120461;84;20987;-87
2021/12/29 06:59:49;;;;;;;42.33;22.95;;;;;;;-3.22;100.00;97691.03;2120611;84;21055;-88
2021/12/29 07:02:50;;;;;;;42.35;22.50;;;;;;;-3.19;100.00;97692.09;2120694;83;20999;-88
2021/12/29 07:05:51;;;;;;;42.13;24.37;;;;;;;-3.14;100.00;97700.22;2120285;84;21008;-83
2021/12/29 07:08:51;;;;;;;48.10;23.62;;;;;;;-3.09;100.00;97699.87;2120147;83;21038;-83
2021/12/29 07:11:52;;;;;;;42.33;24.07;;;;;;;-3.06;100.00;97703.00;2120733;84;20917;-83
2021/12/29 07:14:53;;;;;;;38.50;22.35;;;;;;;-3.02;100.00;97711.25;2120351;83;21019;-88
2021/12/29 07:17:54;;;;;;;33.88;19.90;;;;;;;-2.99;100.00;97706.73;2120381;84;21482;-81
2021/12/29 07:20:55;;;;;;;37.80;20.72;;;;;;;-2.94;100.00;97714.85;2120597;83;21003;-88
2021/12/29 07:23:57;;;;;;;34.43;20.05;;;;;;;-2.92;100.00;97709.63;2120407;83;21022;-90
2021/12/29 07:26:57;;;;;;;31.15;18.90;;;;;;;-2.89;100.00;97711.48;2120600;83;21511;-89
2021/12/29 07:29:58;;;;;;;35.80;19.62;;;;;;;-2.84;100.00;97718.79;2120704;83;20996;-88
2021/12/29 07:32:59;;;;;;;35.92;21.33;;;;;;;-2.83;100.00;97718.32;2121269;83;21529;-86
2021/12/29 07:36:00;;;;;;;41.18;23.42;;;;;;;-2.79;100.00;97723.57;2121023;83;21074;-87
2021/12/29 07:39:01;;;;;;;43.28;23.62;;;;;;;-2.73;100.00;97721.34;2120449;83;21031;-85
2021/12/29 07:42:02;;;;;;;36.73;22.00;;;;;;;-2.68;100.00;97717.13;2120198;83;20995;-87
2021/12/29 07:45:04;;;;;;;34.15;21.50;;;;;;;-2.65;100.00;97719.44;2120168;84;21459;-86
2021/12/29 07:48:09;;;;;;;46.73;26.17;;;;;;;-2.57;100.00;97724.78;2120310;84;21560;-87
2021/12/29 07:51:08;;;;;;;39.75;22.45;;;;;;;-2.49;100.00;97727.55;2119818;83;21550;-87
2021/12/29 07:54:09;;;;;;;43.13;25.55;;;;;;;-2.44;100.00;97728.02;2120120;84;21082;-88
2021/12/29 07:57:10;;;;;;;46.65;26.40;;;;;;;-2.37;100.00;97729.63;2120258;84;21566;-87
2021/12/29 08:00:11;;;;;;;44.95;25.68;;;;;;;-2.31;100.00;97741.94;2120662;84;21032;-89
2021/12/29 08:03:12;;;;;;;46.42;24.63;;;;;;;-2.29;100.00;97738.78;2120318;83;21079;-88
2021/12/29 08:06:13;;;;;;;45.92;26.73;;;;;;;-2.22;100.00;97741.20;2120274;83;21035;-88
2021/12/29 08:09:14;;;;;;;47.25;27.45;;;;;;;-2.17;100.00;97748.08;2120352;83;20980;-85
2021/12/29 08:12:15;;;;;;;43.98;25.85;;;;;;;-2.11;100.00;97754.45;2120241;84;21027;-88
2021/12/29 08:15:16;;;;;;;44.73;27.58;;;;;;;-2.04;100.00;97760.72;2120232;84;21043;-90
2021/12/29 08:18:17;;;;;;;45.73;26.33;;;;;;;-1.93;100.00;97755.99;2120281;83;21102;-88
2021/12/29 08:21:18;;;;;;;41.45;25.95;;;;;;;-1.88;100.00;97757.26;2120207;83;20964;-90
2021/12/29 08:24:19;;;;;;;49.83;28.17;;;;;;;-1.82;100.00;97754.20;2122904;83;21022;-88
2021/12/29 08:27:20;;;;;;;46.35;27.82;;;;;;;-1.80;100.00;97761.77;2144424;83;21478;-88
2021/12/29 08:30:20;;;;;;;47.60;26.87;;;;;;;-1.74;100.00;97766.39;2144776;83;21028;-88
2021/12/29 08:33:21;;;;;;;47.23;27.50;;;;;;;-1.66;100.00;97772.99;2144166;83;21505;-88
2021/12/29 08:36:23;;;;;;;52.10;27.82;;;;;;;-1.58;100.00;97771.90;2143883;83;21039;-84
2021/12/29 08:39:25;;;;;;;49.70;28.25;;;;;;;-1.51;100.00;97776.06;2144646;83;20975;-86
2021/12/29 08:42:26;;;;;;;47.65;28.12;;;;;;;-1.45;100.00;97784.09;2144159;83;20982;-86
2021/12/29 08:45:27;;;;;;;49.98;29.10;;;;;;;-1.34;100.00;97793.94;2144513;83;20978;-85
2021/12/29 08:48:28;;;;;;;54.18;30.88;;;;;;;-1.29;100.00;97796.92;2145081;83;21030;-85
2021/12/29 08:51:29;;;;;;;45.38;28.25;;;;;;;-1.24;100.00;97793.52;2144130;83;20975;-81
2021/12/29 08:54:29;;;;;;;41.88;25.90;;;;;;;-1.16;100.00;97795.78;2144110;83;21144;-84
2021/12/29 08:57:30;;;;;;;48.25;26.82;;;;;;;-1.10;100.00;97796.20;2144221;83;21006;-82
2021/12/29 09:00:31;;;;;;;48.13;27.20;;;;;;;-1.07;100.00;97796.77;2143907;83;21058;-88
2021/12/29 09:03:32;;;;;;;53.17;30.10;;;;;;;-1.06;100.00;97794.55;2144137;83;20987;-83
2021/12/29 09:06:34;;;;;;;48.87;29.82;;;;;;;-1.03;100.00;97797.31;2144607;83;21086;-83
2021/12/29 09:09:35;;;;;;;47.93;29.02;;;;;;;-0.96;100.00;97806.95;2145366;83;20959;-82
2021/12/29 09:12:35;;;;;;;50.58;31.00;;;;;;;-0.88;100.00;97802.46;2144916;83;21043;-82
2021/12/29 09:15:36;;;;;;;48.50;29.18;;;;;;;-0.80;100.00;97806.95;2144479;83;21030;-83
2021/12/29 09:18:37;;;;;;;52.78;30.12;;;;;;;-0.77;100.00;97803.64;2144011;83;21054;-83
2021/12/29 09:21:39;;;;;;;53.73;32.78;;;;;;;-0.76;100.00;97798.84;2144196;83;21427;-86
2021/12/29 09:24:40;;;;;;;52.48;30.55;;;;;;;-0.72;100.00;97782.70;2143806;83;21118;-84
2021/12/29 09:27:42;;;;;;;52.35;29.65;;;;;;;-0.68;100.00;97781.00;2144137;83;20999;-84
2021/12/29 09:30:43;;;;;;;53.45;30.90;;;;;;;-0.62;100.00;97772.77;2143792;83;21000;-84
2021/12/29 09:33:43;;;;;;;48.70;27.93;;;;;;;-0.53;100.00;97772.93;2143995;83;21002;-83
2021/12/29 09:36:44;;;;;;;49.08;28.75;;;;;;;-0.50;100.00;97766.23;2143640;83;21022;-84
2021/12/29 09:39:45;;;;;;;53.85;30.17;;;;;;;-0.44;100.00;97761.38;2143770;83;20998;-84
2021/12/29 09:42:46;;;;;;;52.15;30.57;;;;;;;-0.37;100.00;97751.34;2143761;83;21527;-84
2021/12/29 09:45:47;;;;;;;54.05;30.75;;;;;;;-0.26;100.00;97753.00;2143917;83;21002;-82
2021/12/29 09:48:49;;;;;;;46.83;26.73;;;;;;;-0.14;100.00;97757.86;2143913;83;20956;-83
2021/12/29 09:51:50;;;;;;;47.70;29.07;;;;;;;-0.01;100.00;97753.72;2143795;83;21039;-82
2021/12/29 09:54:51;;;;;;;48.25;29.35;;;;;;;0.14;100.00;97755.41;2143895;83;20959;-84
2021/12/29 09:57:52;;;;;;;51.10;30.77;;;;;;;0.24;100.00;97772.47;2143849;83;21477;-83
2021/12/29 10:00:54;;;;;;;50.60;29.55;;;;;;;0.34;100.00;97767.30;2143807;83;20980;-84
2021/12/29 10:03:55;;;;;;;51.92;31.42;;;;;;;0.43;100.00;97764.38;2143746;83;21075;-85
2021/12/29 10:06:56;;;;;;;54.58;31.33;;;;;;;0.48;100.00;97766.07;2143826;83;21014;-85
2021/12/29 10:09:56;;;;;;;59.42;32.63;;;;;;;0.47;100.00;97770.41;2144692;83;21471;-85
2021/12/29 10:12:57;;;;;;;54.45;33.13;;;;;;;0.46;100.00;97771.84;2144070;83;21027;-85
2021/12/29 10:15:58;;;;;;;49.90;30.05;;;;;;;0.40;100.00;97773.20;2143782;83;20955;-85
2021/12/29 10:18:59;;;;;;;55.67;33.08;;;;;;;0.35;100.00;97776.66;2143930;83;21075;-84
2021/12/29 10:22:00;;;;;;;54.83;32.90;;;;;;;0.28;100.00;97773.02;2143906;83;21035;-88
2021/12/29 10:25:00;;;;;;;59.48;33.60;;;;;;;0.26;100.00;97778.28;2143517;83;20998;-89
2021/12/29 10:28:01;;;;;;;59.27;33.83;;;;;;;0.24;100.00;97780.19;2141930;83;21509;-85
2021/12/29 10:31:02;;;;;;;51.95;30.37;;;;;;;0.27;100.00;97788.11;2141756;82;21454;-83
2021/12/29 10:34:03;;;;;;;59.73;33.78;;;;;;;0.25;100.00;97793.41;2141461;82;20986;-84
2021/12/29 10:37:04;;;;;;;52.80;29.12;;;;;;;0.26;100.00;97796.78;2141613;82;21010;-88
2021/12/29 10:40:06;;;;;;;58.65;33.65;;;;;;;0.27;100.00;97798.41;2141848;82;21047;-86
2021/12/29 10:43:06;;;;;;;55.83;33.53;;;;;;;0.32;100.00;97789.00;2141604;83;20983;-82
2021/12/29 10:46:07;;;;;;;55.63;32.83;;;;;;;0.35;100.00;97792.58;2141484;83;21018;-83
2021/12/29 10:49:08;;;;;;;57.23;34.15;;;;;;;0.40;100.00;97795.56;2141649;83;21008;-82
2021/12/29 10:52:09;;;;;;;64.65;36.58;;;;;;;0.39;100.00;97798.62;2141617;82;20959;-82
2021/12/29 10:55:10;;;;;;;61.50;33.38;;;;;;;0.38;100.00;97803.91;2141593;82;20994;-83
2021/12/29 10:58:11;;;;;;;58.63;33.92;;;;;;;0.37;100.00;97805.68;2141660;82;20999;-82
2021/12/29 11:01:11;;;;;;;63.65;35.52;;;;;;;0.37;100.00;97806.97;2141611;83;20987;-83
2021/12/29 11:04:12;;;;;;;54.27;33.83;;;;;;;0.38;100.00;97810.35;2141500;82;20968;-83
2021/12/29 11:07:14;;;;;;;61.20;37.05;;;;;;;0.39;100.00;97805.06;2141515;82;21048;-82
2021/12/29 11:10:15;;;;;;;58.58;33.58;;;;;;;0.43;100.00;97796.57;2141831;83;21011;-82
2021/12/29 11:13:15;;;;;;;61.73;34.00;;;;;;;0.47;100.00;97794.07;2141848;83;21034;-82
2021/12/29 11:16:16;;;;;;;53.58;30.90;;;;;;;0.52;100.00;97795.74;2141694;82;20948;-83
2021/12/29 11:19:17;;;;;;;61.92;34.45;;;;;;;0.58;100.00;97799.54;2141554;83;21553;-83
2021/12/29 11:22:18;;;;;;;54.80;32.45;;;;;;;0.61;100.00;97797.96;2141631;82;20975;-82
2021/12/29 11:25:19;;;;;;;63.08;36.48;;;;;;;0.60;100.00;97794.58;2141508;82;21078;-83
2021/12/29 11:28:20;;;;;;;64.75;35.25;;;;;;;0.62;100.00;97802.16;2141604;82;20980;-82
2021/12/29 11:31:21;;;;;;;66.37;39.05;;;;;;;0.65;100.00;97795.46;2141536;83;21051;-83
2021/12/29 11:34:26;;;;;;;66.60;36.83;;;;;;;0.70;100.00;97803.09;2141586;82;21442;-83
2021/12/29 11:37:27;;;;;;;60.52;36.73;;;;;;;0.74;100.00;97810.89;2141473;83;21098;-82
2021/12/29 11:40:27;;;;;;;60.43;33.63;;;;;;;0.76;100.00;97816.72;2141563;82;21025;-82
2021/12/29 11:43:29;;;;;;;53.65;32.20;;;;;;;0.77;100.00;97814.47;2141564;83;21625;-82
2021/12/29 11:46:30;;;;;;;64.90;36.42;;;;;;;0.76;100.00;97811.56;2141430;83;21007;-82
2021/12/29 11:49:31;;;;;;;62.90;36.60;;;;;;;0.76;100.00;97816.72;2141755;82;21003;-83
2021/12/29 11:52:31;;;;;;;61.45;35.83;;;;;;;0.76;100.00;97810.75;2142023;83;21040;-82
2021/12/29 11:55:32;;;;;;;60.65;34.55;;;;;;;0.79;100.00;97810.47;2141790;83;20951;-83
2021/12/29 11:58:34;;;;;;;56.10;33.65;;;;;;;0.85;100.00;97807.34;2141681;83;21513;-80
2021/12/29 12:01:35;;;;;;;61.85;35.15;;;;;;;0.88;100.00;97807.05;2142038;83;21024;-84
2021/12/29 12:04:36;;;;;;;70.03;38.92;;;;;;;0.85;100.00;97814.59;2141944;82;20994;-82
2021/12/29 12:07:37;;;;;;;72.17;42.43;;;;;;;0.87;100.00;97808.00;2142083;82;21047;-84
2021/12/29 12:10:38;;;;;;;62.00;38.00;;;;;;;0.89;100.00;97811.24;2142559;83;20987;-81
2021/12/29 12:13:39;;;;;;;59.13;35.03;;;;;;;0.92;100.00;97814.85;2142380;83;21043;-84
2021/12/29 12:16:39;;;;;;;63.95;34.43;;;;;;;0.95;100.00;97805.54;2142284;83;20999;-83
2021/12/29 12:19:41;;;;;;;59.13;33.48;;;;;;;0.96;100.00;97805.06;2142075;83;20959;-84
2021/12/29 12:22:42;;;;;;;66.62;39.35;;;;;;;0.98;100.00;97812.98;2142030;83;20998;-85
2021/12/29 12:25:43;;;;;;;61.92;33.67;;;;;;;1.03;100.00;97814.67;2142357;83;21099;-85
2021/12/29 12:28:44;;;;;;;59.58;34.73;;;;;;;1.13;100.00;97823.18;2144136;83;20963;-85
2021/12/29 12:31:45;;;;;;;62.43;35.92;;;;;;;1.17;100.00;97828.05;2144379;83;20948;-85
2021/12/29 12:34:46;;;;;;;60.58;36.20;;;;;;;1.16;100.00;97829.00;2144256;83;21003;-85
2021/12/29 12:37:47;;;;;;;60.55;35.60;;;;;;;1.19;100.00;97832.58;2144248;83;21074;-85
2021/12/29 12:40:47;;;;;;;59.55;35.63;;;;;;;1.24;100.00;97836.36;2144314;83;21577;-83
2021/12/29 12:43:48;;;;;;;58.00;34.23;;;;;;;1.30;100.00;97838.39;2144345;83;20923;-85
2021/12/29 12:46:50;;;;;;;51.48;32.38;;;;;;;1.33;100.00;97852.28;2144245;83;21000;-84
2021/12/29 12:49:51;;;;;;;59.73;36.10;;;;;;;1.30;100.00;97860.31;2144648;83;21192;-82
2021/12/29 12:52:52;;;;;;;73.57;39.45;;;;;;;1.28;100.00;97857.06;2144313;83;21063;-79
2021/12/29 12:55:54;;;;;;;61.48;36.42;;;;;;;1.30;100.00;97861.59;2144229;83;20996;-84
2021/12/29 12:58:57;;;;;;;67.55;37.67;;;;;;;1.38;100.00;97867.34;2143897;83;20990;-83
2021/12/29 13:01:57;;;;;;;66.77;39.63;;;;;;;1.45;100.00;97868.38;2143931;83;21041;-84
2021/12/29 13:04:58;;;;;;;68.17;38.85;;;;;;;1.55;100.00;97874.78;2143930;83;20955;-83
2021/12/29 13:07:59;;;;;;;55.67;34.08;;;;;;;1.60;100.00;97869.54;2144123;83;21515;-85
2021/12/29 13:11:00;;;;;;;64.30;36.95;;;;;;;1.62;100.00;97870.20;2143951;83;20946;-82
2021/12/29 13:14:01;;;;;;;76.53;43.10;;;;;;;1.63;100.00;97862.79;2144166;83;20967;-82
2021/12/29 13:17:02;;;;;;;66.75;38.10;;;;;;;1.71;100.00;97869.34;2144304;83;20994;-85
2021/12/29 13:20:03;;;;;;;60.05;37.98;;;;;;;1.75;100.00;97866.48;2143938;83;20951;-85
2021/12/29 13:23:04;;;;;;;65.12;38.15;;;;;;;1.77;100.00;97870.55;2144459;83;20994;-83
2021/12/29 13:26:05;;;;;;;63.00;36.20;;;;;;;1.70;100.00;97871.59;2139251;81;20995;-86
2021/12/29 13:29:06;;;;;;;60.12;36.38;;;;;;;1.68;100.00;97872.70;2120119;83;20996;-85
2021/12/29 13:32:07;;;;;;;63.55;36.05;;;;;;;1.67;100.00;97876.23;2120096;84;21040;-85
2021/12/29 13:35:07;;;;;;;64.55;39.83;;;;;;;1.61;100.00;97881.48;2120133;83;21000;-85
2021/12/29 13:38:08;;;;;;;65.17;37.95;;;;;;;1.60;100.00;97884.21;2120246;84;20941;-84
2021/12/29 13:41:09;;;;;;;70.72;39.38;;;;;;;1.59;100.00;97878.23;2120216;84;20976;-84
2021/12/29 13:44:10;;;;;;;64.42;37.23;;;;;;;1.58;100.00;97884.84;2120042;84;20980;-84
2021/12/29 13:47:11;;;;;;;68.07;41.02;;;;;;;1.56;100.00;97893.20;2120515;84;20980;-84
2021/12/29 13:50:12;;;;;;;69.22;40.45;;;;;;;1.56;100.00;97895.78;2120109;83;21024;-85